Home   Weather   USA   Gautier   Past weeks
Flag for USA

Past Weather in Gautier, Mississippi, USA — Yesterday and Last 2 Weeks

Currently: 79 °F. Broken clouds. (Weather station: Lott International Airport, USA). See more current weather

Past Weather in Gautier — Graph

°F

Gautier Temperature Yesterday

Maximum temperature yesterday: 79 °F (at 10:53 am)
Minimum temperature yesterday: 54 °F (at 4:53 am)
Average temperature yesterday: 67 °F

High & Low Weather Summary for the Past Weeks

 TemperatureHumidityPressure
High82 °F (Apr 13, 11:53 am)97% (Apr 2, 7:14 am)30.32 "Hg (Apr 2, 7:14 am)
Low40 °F (Apr 4, 5:53 am)21% (Apr 4, 2:53 pm)29.61 "Hg (Apr 11, 2:53 am)
Average66 °F76%29.98 "Hg
* Reported Apr 1 1:53 pm — Apr 16 1:53 pm, Gautier. Weather by CustomWeather, © 2024

Note: Actual official high and low records may vary slightly from our data, if they occured in-between our weather recording intervals... More about our weather records

Gautier Weather History for the Previous 24 Hours

Scroll right to see more
 ConditionsComfort  
Time TempWeatherWind HumidityBarometerVisibility
1:53 pm
Tue, Apr 16
79 °FBroken clouds.15 mph69%30.10 "Hg10 mi
1:04 pm79 °FBroken clouds.15 mph69%30.09 "Hg10 mi
12:53 pm79 °FScattered clouds.17 mph67%30.10 "Hg10 mi
11:53 am79 °FScattered clouds.16 mph67%30.09 "Hg10 mi
10:53 am79 °FPassing clouds.16 mph65%30.09 "Hg10 mi
9:53 am77 °FScattered clouds.16 mph69%30.07 "Hg10 mi
9:20 am75 °FScattered clouds.12 mph79%30.07 "Hg10 mi
9:08 am75 °FPartly sunny.13 mph76%30.07 "Hg10 mi
8:53 am75 °FPartly sunny.12 mph79%30.07 "Hg10 mi
8:24 am73 °FPartly sunny.9 mph84%30.06 "Hg10 mi
7:53 am71 °FPassing clouds.7 mph93%30.05 "Hg10 mi
6:55 am63 °FFog.No wind90%30.04 "Hg3 mi
6:34 am63 °FFog.No wind93%30.05 "Hg3 mi
6:13 am63 °FFog.No wind93%30.05 "Hg1 mi
5:53 am63 °FFog.No wind93%30.05 "Hg1 mi
4:53 am64 °FClear.No wind97%30.03 "Hg10 mi
4:26 am63 °FFog.No wind93%30.03 "Hg3 mi
4:22 am63 °FFog.No wind93%30.03 "Hg1 mi
4:10 am63 °FFog.No wind90%30.03 "Hg1 mi
4:05 am62 °FFog.No wind93%30.03 "Hg1 mi
3:33 am64 °FFog.No wind90%30.04 "Hg2 mi
2:53 am68 °FClear.No wind87%30.03 "Hg10 mi
1:53 am70 °FClear.6 mph84%30.03 "Hg10 mi
12:53 am71 °FClear.8 mph84%30.04 "Hg10 mi
12:06 am71 °FPassing clouds.6 mph87%30.05 "Hg10 mi
11:01 pm
Mon, Apr 15
70 °FPassing clouds.5 mph90%30.06 "Hg10 mi
9:53 pm68 °FClear.3 mph90%30.06 "Hg10 mi
8:53 pm68 °FClear.No wind90%30.06 "Hg10 mi
7:53 pm70 °FClear.No wind87%30.06 "Hg10 mi
7:31 pm71 °FPassing clouds.3 mph84%30.06 "Hg10 mi
6:53 pm74 °FOvercast.10 mph76%30.05 "Hg10 mi
5:53 pm75 °FBroken clouds.8 mph74%30.05 "Hg10 mi
4:53 pm77 °FScattered clouds.10 mph66%30.05 "Hg10 mi
3:53 pm76 °FBroken clouds.8 mph69%30.06 "Hg10 mi
Weather by CustomWeather, © 2024

See weather overview